Time;durP1;ratioP1;P1;durP2;ratioP2;P2;SDS_P1;SDS_P2;PMS_P1;PMS_P2;Temp;Humidity;BMP_temperature;BMP_pressure;BME280_temperature;BME280_humidity;BME280_pressure;Samples;Min_cycle;Max_cycle;Signal;HPM_P1;HPM_P2
2021/07/22 00:00:29;;;;;;;7.93;5.68;;;20.20;58.20;;;20.62;47.42;98098.59;4871124;29;20239;-37
2021/07/22 00:02:57;;;;;;;8.02;5.47;;;20.20;58.40;;;20.56;47.58;98099.41;4873561;29;20049;-37
2021/07/22 00:05:25;;;;;;;6.22;4.43;;;20.10;58.60;;;20.52;47.57;98098.19;4872802;29;20091;-37
2021/07/22 00:08:00;;;;;;;7.80;4.85;;;20.00;58.70;;;20.48;47.77;98097.78;4889080;29;20061;-37
2021/07/22 00:10:28;;;;;;;11.55;5.38;;;20.00;59.30;;;20.45;48.05;98100.91;4875173;29;20778;-37
2021/07/22 00:12:56;;;;;;;7.80;4.97;;;20.00;59.10;;;20.41;48.05;98103.22;4873614;29;20123;-37
2021/07/22 00:15:24;;;;;;;8.23;5.45;;;19.90;59.40;;;20.39;48.32;98097.16;4875182;29;20251;-37
2021/07/22 00:17:52;;;;;;;8.60;5.47;;;19.90;59.20;;;20.39;47.99;98099.06;4873108;29;20057;-37
2021/07/22 00:20:20;;;;;;;6.93;5.07;;;19.90;58.90;;;20.37;48.00;98096.56;4873940;29;20266;-37
2021/07/22 00:22:48;;;;;;;6.97;5.43;;;19.90;58.90;;;20.38;47.86;98102.81;4873814;29;20060;-37
2021/07/22 00:25:16;;;;;;;10.15;5.80;;;19.90;58.80;;;20.35;48.23;98095.13;4874122;29;20049;-37
2021/07/22 00:27:44;;;;;;;5.80;4.72;;;19.90;59.30;;;20.33;48.65;98098.03;4874909;29;20063;-37
2021/07/22 00:30:13;;;;;;;7.38;5.57;;;19.90;59.60;;;20.34;48.58;98098.88;4872526;29;20059;-37
2021/07/22 00:32:40;;;;;;;9.13;4.88;;;19.90;59.50;;;20.33;48.64;98089.91;4873444;29;20067;-37
2021/07/22 00:35:09;;;;;;;7.78;5.93;;;19.90;59.60;;;20.30;48.79;98086.81;4874883;29;20061;-37
2021/07/22 00:37:37;;;;;;;9.10;6.22;;;19.90;59.90;;;20.33;48.88;98099.91;4873684;29;20365;-38
2021/07/22 00:40:06;;;;;;;8.05;4.70;;;19.90;59.90;;;20.33;48.78;98092.63;4872601;29;20065;-38
2021/07/22 00:42:54;;;;;;;6.43;5.35;;;20.00;59.90;;;20.33;48.79;98091.78;4873042;29;20359;-38
2021/07/22 00:45:22;;;;;;;6.72;5.07;;;20.00;61.10;;;20.33;48.89;98087.22;4870911;29;20061;-38
2021/07/22 00:47:51;;;;;;;9.00;5.30;;;20.00;59.90;;;20.33;49.06;98081.81;4872636;29;20051;-38
2021/07/22 00:50:19;;;;;;;6.82;5.20;;;20.00;60.10;;;20.33;49.17;98089.91;4874368;29;20053;-38
2021/07/22 00:52:47;;;;;;;6.75;5.18;;;19.90;60.30;;;20.31;49.32;98085.78;4873238;29;20384;-38
2021/07/22 00:55:18;;;;;;;9.02;6.15;;;19.90;60.60;;;20.27;49.28;98082.66;4873174;29;20057;-38
2021/07/22 00:57:47;;;;;;;6.57;5.22;;;19.90;60.70;;;20.25;49.34;98084.75;4871359;29;20071;-38
2021/07/22 01:00:15;;;;;;;6.68;4.85;;;19.80;60.70;;;20.26;49.61;98081.03;4874702;29;20267;-38
2021/07/22 01:02:44;;;;;;;7.22;5.30;;;19.90;60.90;;;20.25;49.98;98073.94;4872352;29;20071;-38
2021/07/22 01:05:12;;;;;;;8.48;5.68;;;19.90;61.30;;;20.22;49.92;98072.50;4872905;29;20048;-38
2021/07/22 01:07:41;;;;;;;8.20;5.50;;;19.80;61.20;;;20.19;49.60;98074.78;4872498;29;20065;-38
2021/07/22 01:10:10;;;;;;;9.15;5.82;;;19.80;61.10;;;20.19;49.65;98072.09;4871434;29;20060;-38
2021/07/22 01:12:40;;;;;;;7.25;4.85;;;19.80;61.00;;;20.17;49.60;98071.47;4856816;29;20357;-38
2021/07/22 01:15:08;;;;;;;11.65;5.25;;;19.80;60.70;;;20.15;49.61;98068.97;4872911;29;20063;-38
2021/07/22 01:17:49;;;;;;;7.70;5.35;;;19.80;60.90;;;20.15;49.49;98060.88;4871852;29;20752;-38
2021/07/22 01:20:23;;;;;;;6.53;5.55;;;19.80;61.20;;;20.14;49.56;98063.78;4871601;29;20053;-38
2021/07/22 01:22:56;;;;;;;6.80;5.95;;;19.80;61.70;;;20.11;49.60;98058.81;4872530;29;20057;-38
2021/07/22 01:25:29;;;;;;;7.55;5.35;;;19.70;61.20;;;20.09;49.94;98066.31;4857945;29;20053;-38
2021/07/22 01:27:58;;;;;;;8.32;5.97;;;19.70;61.60;;;20.08;50.28;98065.44;4886568;29;20413;-38
2021/07/22 01:30:26;;;;;;;6.88;5.38;;;19.70;61.90;;;20.08;50.22;98068.16;4873204;29;20947;-38
2021/07/22 01:32:54;;;;;;;7.22;5.35;;;19.70;61.60;;;20.09;50.18;98066.31;4871285;29;20061;-38
2021/07/22 01:35:22;;;;;;;8.80;6.28;;;19.80;61.40;;;20.09;50.29;98066.31;4873360;29;20056;-38
2021/07/22 01:37:50;;;;;;;7.00;5.57;;;19.80;61.50;;;20.03;50.17;98070.69;4870887;29;20069;-38
2021/07/22 01:40:19;;;;;;;9.13;6.22;;;19.70;61.60;;;20.00;50.38;98062.97;4872853;29;20071;-38
2021/07/22 01:42:48;;;;;;;6.70;5.30;;;19.60;61.80;;;19.97;50.45;98061.53;4872862;29;20083;-38
2021/07/22 01:45:18;;;;;;;7.03;5.65;;;19.60;62.00;;;19.97;50.55;98061.53;4873546;29;20235;-38
2021/07/22 01:47:47;;;;;;;10.13;5.95;;;19.60;62.00;;;20.00;50.53;98060.28;4871471;29;20051;-38
2021/07/22 01:50:15;;;;;;;9.25;5.72;;;19.70;62.00;;;20.00;50.44;98060.28;4871804;29;20076;-38
2021/07/22 01:52:43;;;;;;;8.63;5.47;;;19.70;61.70;;;20.01;50.30;98053.84;4873093;29;20051;-38
2021/07/22 01:55:12;;;;;;;6.15;5.22;;;19.70;62.20;;;20.01;49.84;98051.16;4871268;29;20087;-38
2021/07/22 01:58:00;;;;;;;13.65;7.40;;;19.70;61.00;;;20.01;50.10;98051.16;4872912;29;20061;-38
2021/07/22 02:00:34;;;;;;;10.20;6.05;;;19.70;61.20;;;20.00;50.03;98052.19;4870988;29;20064;-38
2021/07/22 02:03:05;;;;;;;8.48;5.93;;;19.70;61.00;;;19.99;49.86;98048.66;4871298;29;20057;-38
2021/07/22 02:06:09;;;;;;;10.23;6.68;;;19.70;60.90;;;19.98;49.93;98048.84;4864641;29;20079;-38
2021/07/22 02:08:42;;;;;;;8.65;5.40;;;19.60;60.80;;;19.97;49.67;98056.16;4871679;29;20059;-38
2021/07/22 02:11:11;;;;;;;6.88;5.30;;;19.70;60.70;;;19.96;49.81;98046.34;4870735;29;20059;-38
2021/07/22 02:13:38;;;;;;;6.30;5.00;;;19.60;60.70;;;19.97;49.69;98042.63;4872882;29;20247;-38
2021/07/22 02:16:08;;;;;;;5.78;5.13;;;19.70;60.90;;;19.96;49.57;98040.13;4872474;29;20362;-38
2021/07/22 02:18:37;;;;;;;7.95;5.35;;;19.70;60.70;;;19.95;49.82;98043.88;4872764;29;20072;-38
2021/07/22 02:21:11;;;;;;;6.95;5.70;;;19.60;60.60;;;19.92;49.50;98039.72;4871827;29;20053;-38
2021/07/22 02:23:46;;;;;;;6.15;4.97;;;19.60;60.50;;;19.89;49.57;98040.16;4871379;29;20065;-38
2021/07/22 02:26:22;;;;;;;8.55;5.75;;;19.50;60.50;;;19.88;49.48;98038.50;4870267;29;20385;-38
2021/07/22 02:28:51;;;;;;;7.32;5.72;;;19.50;60.50;;;19.87;49.41;98047.63;4871119;29;20060;-38
2021/07/22 02:31:19;;;;;;;8.95;5.68;;;19.50;60.40;;;19.84;49.53;98048.88;4871984;29;20392;-38
2021/07/22 02:33:48;;;;;;;10.23;6.20;;;19.50;60.60;;;19.78;49.41;98047.03;4872324;29;20043;-38
2021/07/22 02:36:17;;;;;;;6.93;5.72;;;19.40;60.40;;;19.76;49.35;98061.78;4870486;29;20138;-38
2021/07/22 02:39:12;;;;;;;5.63;5.00;;;19.40;60.40;;;19.72;49.49;98055.16;4869903;29;20067;-38
2021/07/22 02:41:40;;;;;;;8.80;4.93;;;19.30;60.30;;;19.66;49.55;98054.09;4855171;29;20060;-38
2021/07/22 02:44:09;;;;;;;8.40;5.97;;;19.30;60.40;;;19.60;49.70;98055.75;4871274;29;20065;-38
2021/07/22 02:46:42;;;;;;;7.28;5.53;;;19.20;60.70;;;19.57;49.59;98055.34;4870913;29;20056;-38
2021/07/22 02:49:11;;;;;;;7.88;5.85;;;19.10;60.90;;;19.54;49.75;98066.53;4871947;29;20377;-38
2021/07/22 02:51:40;;;;;;;8.85;6.32;;;19.20;60.90;;;19.52;49.83;98064.03;4870607;29;20059;-38
2021/07/22 02:54:11;;;;;;;8.32;5.60;;;19.10;60.90;;;19.50;50.11;98066.13;4870957;29;20071;-38
2021/07/22 02:56:41;;;;;;;9.18;5.38;;;19.20;60.90;;;19.47;49.92;98069.25;4872468;29;20091;-38
2021/07/22 02:59:15;;;;;;;9.18;7.07;;;19.20;61.00;;;19.46;49.91;98071.13;4871964;29;20529;-38
2021/07/22 03:01:43;;;;;;;7.80;6.30;;;19.10;61.20;;;19.44;50.10;98075.06;4869790;29;20483;-38
2021/07/22 03:04:19;;;;;;;13.55;6.28;;;19.10;61.30;;;19.42;50.18;98064.47;4869933;29;20069;-38
2021/07/22 03:07:04;;;;;;;8.43;5.67;;;19.10;61.50;;;19.39;50.24;98062.19;4868533;29;20064;-38
2021/07/22 03:09:33;;;;;;;7.22;6.53;;;19.00;61.70;;;19.38;50.50;98062.41;4884413;29;20057;-38
2021/07/22 03:12:02;;;;;;;10.23;6.05;;;19.00;61.80;;;19.36;50.34;98064.47;4871253;29;20057;-38
2021/07/22 03:14:41;;;;;;;8.40;6.40;;;18.90;61.80;;;19.34;50.53;98063.84;4870773;29;20057;-38
2021/07/22 03:17:09;;;;;;;7.55;6.40;;;18.90;62.10;;;19.33;50.55;98070.28;4870169;29;20061;-38
2021/07/22 03:19:44;;;;;;;7.03;5.90;;;18.90;62.20;;;19.31;50.72;98072.34;4868485;29;20063;-38
2021/07/22 03:22:15;;;;;;;6.50;5.53;;;18.90;62.30;;;19.28;50.75;98065.50;4871343;29;20057;-38
2021/07/22 03:24:42;;;;;;;7.07;5.93;;;18.90;62.30;;;19.22;50.69;98072.56;4872311;29;20057;-38
2021/07/22 03:27:28;;;;;;;8.25;5.75;;;18.80;62.40;;;19.20;50.68;98074.63;4869113;29;20071;-38
2021/07/22 03:29:58;;;;;;;7.97;6.10;;;18.80;62.60;;;19.17;50.92;98066.13;4872557;29;20053;-38
2021/07/22 03:32:27;;;;;;;9.50;5.72;;;18.70;62.80;;;19.12;50.89;98066.75;4871159;29;20266;-38
2021/07/22 03:34:56;;;;;;;7.30;5.28;;;18.70;62.90;;;19.08;51.17;98065.50;4870930;29;20351;-38
2021/07/22 03:37:36;;;;;;;11.05;6.50;;;18.70;62.90;;;19.05;51.15;98063.19;4861455;29;20083;-38
2021/07/22 03:40:10;;;;;;;8.60;6.22;;;18.60;63.20;;;19.01;51.15;98060.06;4874620;29;20055;-38
2021/07/22 03:42:39;;;;;;;7.38;5.93;;;18.50;63.30;;;18.97;51.21;98060.69;4874368;29;20057;-38
2021/07/22 03:45:13;;;;;;;8.77;6.60;;;18.50;63.50;;;18.92;51.46;98066.72;4876378;29;20045;-38
2021/07/22 03:47:45;;;;;;;8.15;6.68;;;18.50;63.80;;;18.88;51.80;98066.28;4872413;29;20063;-38
2021/07/22 03:50:13;;;;;;;9.45;6.88;;;18.40;63.80;;;18.84;51.61;98066.88;4888162;29;20061;-38
2021/07/22 03:52:42;;;;;;;11.73;6.63;;;18.40;63.80;;;18.82;51.69;98058.16;4873539;29;20056;-38
2021/07/22 03:55:13;;;;;;;8.75;6.80;;;18.40;63.90;;;18.79;51.93;98064.78;4875587;29;20247;-38
2021/07/22 03:58:18;;;;;;;8.73;5.97;;;18.40;64.10;;;18.76;51.93;98067.03;4873236;29;20063;-38
2021/07/22 04:00:59;;;;;;;9.82;6.22;;;18.40;64.20;;;18.77;52.12;98071.41;4888133;29;20370;-38
2021/07/22 04:03:27;;;;;;;7.45;6.18;;;18.40;64.40;;;18.76;52.09;98070.56;4874959;29;20059;-38
2021/07/22 04:05:56;;;;;;;9.57;5.82;;;18.40;64.40;;;18.76;52.19;98072.44;4888263;29;20217;-38
2021/07/22 04:08:24;;;;;;;7.03;5.68;;;18.40;64.60;;;18.74;52.38;98072.63;4873561;29;20363;-38
2021/07/22 04:11:06;;;;;;;9.90;6.47;;;18.30;64.70;;;18.72;52.42;98073.88;4874699;29;20365;-38
2021/07/22 04:13:52;;;;;;;8.93;6.00;;;18.30;65.00;;;18.72;52.48;98068.50;4878021;29;20071;-38
2021/07/22 04:16:44;;;;;;;8.30;5.68;;;18.30;64.80;;;18.69;52.46;98073.25;4876125;29;20063;-38
2021/07/22 04:19:23;;;;;;;7.72;5.60;;;18.30;64.80;;;18.69;52.65;98061.66;4873987;29;20053;-39
2021/07/22 04:22:11;;;;;;;6.75;5.22;;;18.30;64.80;;;18.69;52.80;98073.25;4877888;29;20063;-39
2021/07/22 04:24:49;;;;;;;12.88;6.63;;;18.40;65.00;;;18.73;52.68;98078.22;4888711;29;20052;-37
2021/07/22 04:27:49;;;;;;;10.30;6.78;;;18.40;64.90;;;18.71;52.59;98075.75;4868859;29;20606;-37
2021/07/22 04:30:23;;;;;;;9.07;6.45;;;18.30;64.80;;;18.71;52.72;98073.06;4872854;29;20057;-40
2021/07/22 04:33:08;;;;;;;7.40;5.78;;;18.40;65.00;;;18.73;52.75;98076.38;4871062;29;20061;-39
2021/07/22 04:35:56;;;;;;;10.77;6.35;;;18.40;65.10;;;18.74;52.46;98078.03;4873351;29;20071;-39
2021/07/22 04:38:41;;;;;;;8.27;5.90;;;18.40;65.10;;;18.74;53.00;98083.44;4873103;29;20075;-38
2021/07/22 04:41:27;;;;;;;9.50;6.07;;;18.40;65.00;;;18.76;52.79;98078.66;4876497;29;20047;-38
2021/07/22 04:44:05;;;;;;;12.20;5.70;;;18.50;65.00;;;18.78;52.94;98078.47;4871286;29;20052;-39
2021/07/22 04:47:05;;;;;;;6.45;5.25;;;18.50;65.00;;;18.73;52.82;98081.78;4873639;29;20037;-38
2021/07/22 04:49:39;;;;;;;7.30;5.63;;;18.40;65.00;;;18.73;53.06;98081.78;4871475;29;20049;-38
2021/07/22 04:52:25;;;;;;;8.45;6.47;;;18.40;65.20;;;18.73;53.11;98084.47;4873072;29;20059;-38
2021/07/22 04:55:11;;;;;;;11.80;7.55;;;18.40;65.50;;;18.72;53.11;98071.19;4886399;29;20064;-38
2021/07/22 04:57:39;;;;;;;9.85;6.97;;;18.40;65.40;;;18.70;53.13;98074.09;4871272;29;20071;-38
2021/07/22 05:00:10;;;;;;;8.15;6.15;;;18.30;65.60;;;18.67;53.26;98074.50;4871923;29;20056;-38
2021/07/22 05:02:57;;;;;;;11.90;6.53;;;18.30;65.90;;;18.68;53.39;98084.25;4870567;29;20071;-38
2021/07/22 05:05:30;;;;;;;7.15;6.03;;;18.30;66.00;;;18.67;53.34;98085.28;4875075;29;20285;-38
2021/07/22 05:08:33;;;;;;;9.10;6.65;;;18.30;66.00;;;18.67;53.38;98082.59;4814445;29;20076;-38
2021/07/22 05:11:21;;;;;;;8.93;6.32;;;18.30;65.80;;;18.68;53.46;98076.97;4840297;29;20363;-38
2021/07/22 05:14:01;;;;;;;10.63;5.90;;;18.30;65.80;;;18.66;53.67;98080.91;4871535;29;20056;-38
2021/07/22 05:16:38;;;;;;;11.85;6.47;;;18.50;66.10;;;18.67;53.68;98088.81;4876896;29;20135;-39
2021/07/22 05:19:24;;;;;;;9.50;6.63;;;18.40;66.00;;;18.68;53.74;98086.94;4872623;29;20053;-39
2021/07/22 05:22:11;;;;;;;8.07;5.85;;;18.40;66.10;;;18.65;53.92;98081.94;4877300;29;20055;-39
2021/07/22 05:24:47;;;;;;;7.65;5.88;;;18.40;66.30;;;18.64;53.91;98089.19;4873789;29;20061;-38
2021/07/22 05:27:44;;;;;;;8.88;5.85;;;18.40;66.50;;;18.63;54.07;98092.09;4865366;29;20071;-38
2021/07/22 05:30:25;;;;;;;7.95;6.38;;;18.30;66.80;;;18.61;54.20;98091.47;4870973;29;20057;-38
2021/07/22 05:33:08;;;;;;;12.30;6.68;;;18.30;67.00;;;18.62;54.21;98093.16;4871446;29;20270;-38
2021/07/22 05:36:08;;;;;;;11.02;6.90;;;18.30;66.90;;;18.63;54.20;98089.41;4868190;29;20063;-38
2021/07/22 05:38:56;;;;;;;10.73;7.22;;;18.30;67.10;;;18.63;54.37;98089.41;4870726;29;20075;-39
2021/07/22 05:41:24;;;;;;;10.30;7.43;;;18.40;68.20;;;18.62;54.74;98093.97;4872433;29;20071;-38
2021/07/22 05:43:52;;;;;;;8.77;6.30;;;18.30;67.60;;;18.63;54.64;98094.78;4870150;29;20061;-40
2021/07/22 05:46:21;;;;;;;8.80;7.00;;;18.30;67.70;;;18.64;54.88;98102.69;4872769;29;20441;-37
2021/07/22 05:48:49;;;;;;;9.20;6.40;;;18.40;67.60;;;18.63;54.88;98108.28;4871660;29;20062;-38
2021/07/22 05:51:17;;;;;;;8.60;6.43;;;18.40;67.80;;;18.65;54.84;98107.06;4872249;29;20351;-37
2021/07/22 05:53:45;;;;;;;8.77;7.35;;;18.30;68.10;;;18.65;54.96;98111.59;4872686;29;20052;-39
2021/07/22 05:56:17;;;;;;;10.27;6.40;;;18.30;68.10;;;18.64;55.00;98104.56;4872878;29;20235;-38
2021/07/22 05:58:46;;;;;;;8.77;7.25;;;18.40;67.80;;;18.62;55.12;98104.75;4870893;29;20071;-39
2021/07/22 06:01:14;;;;;;;8.40;6.05;;;18.40;67.90;;;18.66;55.11;98106.00;4872269;29;20065;-39
2021/07/22 06:03:43;;;;;;;10.35;6.53;;;18.50;68.80;;;18.73;55.28;98099.81;4872761;29;20053;-39
2021/07/22 06:06:13;;;;;;;7.22;6.30;;;18.60;67.60;;;18.81;55.28;98114.00;4873404;29;20060;-39
2021/07/22 06:08:41;;;;;;;9.18;6.85;;;18.70;67.30;;;18.91;55.22;98102.00;4872646;29;20061;-40
2021/07/22 06:11:10;;;;;;;9.77;6.68;;;18.80;67.00;;;18.98;55.11;98103.66;4872442;29;20060;-40
2021/07/22 06:13:38;;;;;;;11.43;7.25;;;18.90;67.10;;;19.05;54.85;98109.88;4871580;29;20056;-39
2021/07/22 06:16:13;;;;;;;10.10;6.32;;;19.00;66.60;;;19.11;54.60;98110.13;4873071;29;20057;-40
2021/07/22 06:18:42;;;;;;;13.90;7.07;;;19.00;66.20;;;19.15;54.66;98112.19;4868318;29;20059;-37
2021/07/22 06:21:17;;;;;;;11.98;6.22;;;19.10;66.50;;;19.22;54.77;98104.13;4871464;29;20061;-38
2021/07/22 06:23:45;;;;;;;10.98;7.70;;;19.20;66.90;;;19.25;54.75;98111.78;4871614;29;20061;-37
2021/07/22 06:26:13;;;;;;;11.48;6.65;;;19.20;66.50;;;19.29;54.43;98110.38;4872614;29;20059;-38
2021/07/22 06:28:42;;;;;;;13.93;7.15;;;19.20;66.10;;;19.30;54.20;98114.72;4870161;29;20053;-38
2021/07/22 06:31:09;;;;;;;19.20;6.95;;;19.20;65.80;;;19.32;54.19;98115.34;4872656;29;20049;-38
2021/07/22 06:33:37;;;;;;;8.70;6.72;;;19.20;65.90;;;19.29;54.43;98118.47;4871301;29;20049;-38
2021/07/22 06:36:05;;;;;;;10.77;6.95;;;19.30;65.70;;;19.30;53.84;98116.59;4871966;29;20267;-39
2021/07/22 06:38:33;;;;;;;10.77;7.07;;;19.20;65.10;;;19.28;53.82;98119.50;4871660;29;20053;-38
2021/07/22 06:41:02;;;;;;;14.35;8.10;;;19.10;65.40;;;19.27;54.31;98112.44;4871919;29;20451;-38
2021/07/22 06:43:31;;;;;;;10.20;7.32;;;19.10;66.20;;;19.27;54.39;98113.28;4871386;29;20067;-38
2021/07/22 06:45:59;;;;;;;10.65;7.05;;;19.10;66.40;;;19.31;54.06;98119.09;4870383;29;20075;-38
2021/07/22 06:48:27;;;;;;;11.65;7.43;;;19.10;65.80;;;19.31;53.91;98111.00;4870882;29;20067;-38
2021/07/22 06:50:56;;;;;;;10.60;6.57;;;19.30;65.50;;;19.35;53.95;98120.34;4871805;29;20060;-38
2021/07/22 06:53:23;;;;;;;12.63;7.28;;;19.30;65.50;;;19.41;53.71;98121.38;4870779;29;20057;-37
2021/07/22 06:55:54;;;;;;;13.73;6.13;;;19.40;64.80;;;19.45;53.59;98109.13;4872178;29;20059;-37
2021/07/22 06:58:22;;;;;;;8.05;6.10;;;19.50;64.40;;;19.51;52.89;98110.19;4870176;29;20065;-37
2021/07/22 07:00:51;;;;;;;8.35;5.57;;;19.50;63.30;;;19.55;53.01;98114.94;4871442;29;20258;-38
2021/07/22 07:03:19;;;;;;;10.43;6.55;;;19.60;63.50;;;19.61;52.83;98108.72;4870271;29;20075;-38
2021/07/22 07:05:47;;;;;;;10.18;6.60;;;19.70;63.70;;;19.66;52.95;98113.50;4871840;29;20055;-38
2021/07/22 07:08:15;;;;;;;9.95;6.90;;;19.60;63.40;;;19.68;52.41;98106.84;4871166;29;20052;-38
2021/07/22 07:10:43;;;;;;;11.85;6.03;;;19.70;63.00;;;19.71;52.75;98107.47;4874142;29;20324;-38
2021/07/22 07:13:13;;;;;;;13.02;7.22;;;19.70;63.50;;;19.75;52.65;98111.44;4878058;29;20053;-39
2021/07/22 07:15:42;;;;;;;12.00;6.45;;;19.70;63.40;;;19.80;52.81;98107.06;4878267;29;20045;-38
2021/07/22 07:18:10;;;;;;;13.43;7.35;;;19.80;63.40;;;19.83;53.08;98108.53;4877983;29;20293;-38
2021/07/22 07:20:38;;;;;;;9.02;6.90;;;19.80;64.00;;;19.79;53.14;98108.13;4877845;29;20067;-39
2021/07/22 07:23:05;;;;;;;10.95;6.40;;;19.80;64.30;;;19.79;52.62;98107.28;4877544;29;20061;-38
2021/07/22 07:25:33;;;;;;;13.18;7.18;;;19.70;63.90;;;19.77;53.14;98102.06;4876858;29;20065;-38
2021/07/22 07:28:01;;;;;;;9.57;6.00;;;19.80;64.40;;;19.79;52.35;98100.03;4876701;29;20056;-39
2021/07/22 07:30:30;;;;;;;14.80;6.82;;;19.70;62.30;;;19.82;52.39;98101.47;4877043;29;20508;-38
2021/07/22 07:32:58;;;;;;;10.00;6.97;;;19.80;63.00;;;19.90;52.22;98105.81;4876647;29;20056;-38
2021/07/22 07:35:26;;;;;;;9.88;6.50;;;19.90;62.60;;;19.95;51.81;98101.47;4877633;29;20063;-38
2021/07/22 07:37:54;;;;;;;12.52;6.95;;;20.00;62.00;;;20.00;51.66;98098.13;4874934;29;20247;-39
2021/07/22 07:40:23;;;;;;;12.00;5.95;;;20.10;61.70;;;20.04;51.99;98102.06;4857948;29;20057;-38
2021/07/22 07:42:50;;;;;;;10.27;7.20;;;20.10;61.90;;;20.13;52.25;98097.28;4857669;29;20224;-38
2021/07/22 07:45:18;;;;;;;8.32;6.07;;;20.20;62.10;;;20.15;52.45;98093.31;4858324;29;20060;-38
2021/07/22 07:47:46;;;;;;;12.43;6.47;;;20.30;62.60;;;20.23;52.48;98095.78;4857964;29;20053;-38
2021/07/22 07:50:14;;;;;;;14.40;6.78;;;20.40;62.60;;;20.28;52.55;98095.16;4858552;29;20062;-38
2021/07/22 07:52:43;;;;;;;10.18;6.60;;;20.40;62.40;;;20.35;52.18;98092.41;4858503;29;20065;-38
2021/07/22 07:55:12;;;;;;;9.93;6.57;;;20.50;62.30;;;20.39;52.11;98091.75;4858903;29;20060;-38
2021/07/22 07:57:40;;;;;;;13.02;6.40;;;20.60;62.00;;;20.46;52.45;98089.06;4857391;29;20061;-38
2021/07/22 08:00:10;;;;;;;12.10;6.25;;;20.60;62.20;;;20.52;52.44;98088.19;4871783;29;20083;-38
2021/07/22 08:02:44;;;;;;;9.95;6.75;;;20.70;62.40;;;20.57;52.06;98090.25;4885843;29;20037;-38
2021/07/22 08:05:12;;;;;;;14.55;7.22;;;20.80;62.20;;;20.61;52.41;98089.66;4884535;29;20055;-38
2021/07/22 08:07:40;;;;;;;13.93;6.90;;;20.80;62.50;;;20.68;52.47;98088.78;4882100;29;20049;-38
2021/07/22 08:10:10;;;;;;;14.20;6.93;;;20.90;62.50;;;20.72;52.97;98088.13;4882315;29;20060;-38
2021/07/22 08:12:40;;;;;;;12.73;7.30;;;20.90;63.00;;;20.78;52.65;98091.84;4857076;29;20049;-38
2021/07/22 08:15:10;;;;;;;11.73;7.10;;;21.00;63.10;;;20.82;53.11;98091.22;4857334;29;20057;-39
2021/07/22 08:17:38;;;;;;;9.10;6.32;;;21.00;63.30;;;20.86;52.42;98088.91;4856797;29;20058;-39
2021/07/22 08:20:09;;;;;;;9.90;6.10;;;21.10;62.80;;;20.93;52.83;98091.56;4872711;29;20064;-39
2021/07/22 08:22:38;;;;;;;9.25;6.70;;;21.10;62.80;;;20.96;53.16;98086.56;4855113;29;20370;-43
2021/07/22 08:25:09;;;;;;;17.38;6.93;;;21.20;63.80;;;21.00;52.85;98085.06;4855753;29;20133;-39
2021/07/22 08:27:37;;;;;;;10.20;5.82;;;21.20;63.00;;;21.07;52.56;98085.00;4854335;29;20075;-39
2021/07/22 08:30:06;;;;;;;7.97;6.18;;;21.30;62.90;;;21.14;52.59;98082.28;4854850;29;20061;-39
2021/07/22 08:32:34;;;;;;;9.25;6.40;;;21.30;62.60;;;21.21;52.38;98086.59;4854125;29;20068;-38
2021/07/22 08:35:02;;;;;;;7.95;6.32;;;21.40;62.40;;;21.26;52.29;98079.69;4854981;29;20055;-38
2021/07/22 08:37:30;;;;;;;7.80;6.35;;;21.50;62.10;;;21.32;51.92;98078.81;4854095;29;20039;-38
2021/07/22 08:40:02;;;;;;;12.18;6.75;;;21.50;61.60;;;21.35;51.12;98078.38;4854615;29;20386;-38
2021/07/22 08:42:35;;;;;;;8.13;6.55;;;21.60;60.80;;;21.39;51.14;98079.59;4854905;29;20347;-38
2021/07/22 08:45:05;;;;;;;10.75;6.03;;;21.60;60.90;;;21.45;51.35;98091.47;4853798;29;20061;-38
2021/07/22 08:47:37;;;;;;;8.77;6.43;;;21.70;61.00;;;21.48;50.82;98081.03;4855647;29;20548;-38
2021/07/22 08:50:08;;;;;;;7.05;5.97;;;21.70;60.40;;;21.54;51.50;98087.41;4854157;29;20347;-38
2021/07/22 08:52:36;;;;;;;7.60;6.13;;;21.80;60.80;;;21.59;51.03;98085.69;4853580;29;20057;-39
2021/07/22 08:55:05;;;;;;;8.57;6.57;;;21.80;60.60;;;21.65;51.22;98088.59;4856746;29;20351;-39
2021/07/22 08:57:34;;;;;;;7.43;6.30;;;21.90;60.60;;;21.68;50.95;98082.75;4857673;29;20126;-39
2021/07/22 09:00:06;;;;;;;7.60;5.93;;;21.80;60.20;;;21.71;51.05;98085.00;4865389;29;20055;-39
2021/07/22 09:02:35;;;;;;;7.75;5.80;;;22.00;60.50;;;21.78;50.89;98083.06;4874017;29;20347;-38
2021/07/22 09:05:06;;;;;;;7.63;6.32;;;22.00;60.20;;;21.81;49.95;98086.16;4875432;29;20048;-38
2021/07/22 09:07:35;;;;;;;7.90;6.43;;;22.10;58.90;;;21.85;49.33;98086.53;4874721;29;20462;-38
2021/07/22 09:10:08;;;;;;;9.63;5.78;;;22.10;58.40;;;21.87;50.17;98086.28;4872287;29;20067;-38
2021/07/22 09:12:41;;;;;;;9.63;7.00;;;22.10;59.20;;;21.91;50.34;98084.81;4872477;29;20049;-39
2021/07/22 09:15:22;;;;;;;8.05;7.13;;;22.10;59.50;;;21.94;48.68;98089.78;4873655;29;20351;-38
2021/07/22 09:18:31;;;;;;;7.38;5.97;;;22.20;58.00;;;21.94;49.10;98084.34;4873161;29;20064;-38
2021/07/22 09:21:26;;;;;;;10.68;6.38;;;22.20;58.00;;;21.94;49.00;98087.88;4873171;29;20462;-38
2021/07/22 09:24:09;;;;;;;7.75;5.95;;;22.20;58.20;;;22.06;48.81;98087.97;4870963;29;20056;-38
2021/07/22 09:26:46;;;;;;;7.18;6.07;;;22.30;57.40;;;22.13;49.00;98086.03;4872202;29;20067;-38
2021/07/22 09:29:14;;;;;;;8.65;6.45;;;22.40;58.30;;;22.20;48.97;98081.38;4901125;29;20261;-38
2021/07/22 09:31:43;;;;;;;7.63;6.07;;;22.50;58.10;;;22.25;48.90;98085.31;4873242;29;20059;-38
2021/07/22 09:34:24;;;;;;;7.13;5.95;;;22.50;58.20;;;22.26;47.25;98087.81;4872112;29;20051;-38
2021/07/22 09:36:53;;;;;;;10.07;6.32;;;22.60;56.00;;;22.34;48.41;98082.09;4871514;29;20049;-38
2021/07/22 09:39:21;;;;;;;9.48;7.43;;;22.60;57.20;;;22.40;48.77;98081.16;4873159;29;20255;-38
2021/07/22 09:42:03;;;;;;;11.00;6.93;;;22.70;57.70;;;22.50;48.29;98079.81;4872348;29;20075;-38
2021/07/22 09:44:37;;;;;;;9.45;6.70;;;22.80;57.10;;;22.58;47.66;98087.63;4871741;29;20060;-38
2021/07/22 09:47:08;;;;;;;9.07;5.95;;;22.80;55.70;;;22.64;46.41;98078.59;4873396;29;20061;-39
2021/07/22 09:49:38;;;;;;;6.80;5.30;;;22.90;55.20;;;22.66;45.63;98076.47;4865702;29;20040;-39
2021/07/22 09:52:19;;;;;;;7.03;5.93;;;22.90;53.90;;;22.73;45.32;98073.69;4871431;29;20083;-38
2021/07/22 09:54:53;;;;;;;6.93;5.25;;;23.00;53.10;;;22.78;45.54;98069.22;4871093;29;20139;-39
2021/07/22 09:57:22;;;;;;;6.97;5.53;;;23.10;54.00;;;22.81;45.07;98068.75;4869993;29;20258;-39
2021/07/22 09:59:52;;;;;;;8.65;5.57;;;23.10;53.20;;;22.92;44.63;98067.16;4871593;29;20057;-39
2021/07/22 10:02:23;;;;;;;8.18;5.68;;;23.20;52.90;;;22.97;44.24;98066.44;4871044;29;20061;-39
2021/07/22 10:05:03;;;;;;;7.10;5.82;;;23.30;52.30;;;23.00;42.42;98060.56;4870276;29;20056;-38
2021/07/22 10:07:35;;;;;;;7.75;5.00;;;23.30;51.50;;;23.05;43.96;98057.19;4870198;29;20072;-38
2021/07/22 10:10:06;;;;;;;6.13;4.97;;;23.30;52.20;;;23.11;43.96;98053.53;4851503;29;20343;-38
2021/07/22 10:12:37;;;;;;;9.60;5.77;;;23.30;51.70;;;23.15;43.61;98057.47;4852707;29;20449;-38
2021/07/22 10:15:06;;;;;;;8.70;5.47;;;23.40;51.70;;;23.19;43.53;98056.75;4866577;29;20053;-39
2021/07/22 10:17:36;;;;;;;6.82;5.90;;;23.50;51.40;;;23.26;43.57;98053.09;4859015;29;20057;-38
2021/07/22 10:20:07;;;;;;;5.80;5.05;;;23.50;51.70;;;23.28;43.72;98049.09;4885770;29;20258;-38
2021/07/22 10:22:35;;;;;;;6.63;5.63;;;23.60;51.40;;;23.33;43.59;98048.41;4873657;29;20470;-39
2021/07/22 10:25:07;;;;;;;6.43;5.70;;;23.60;51.30;;;23.35;43.27;98041.66;4872182;29;20061;-38
2021/07/22 10:27:36;;;;;;;7.40;5.25;;;23.70;50.70;;;23.38;43.00;98043.13;4885930;29;20053;-38
2021/07/22 10:30:07;;;;;;;6.25;5.57;;;23.70;51.00;;;23.43;42.85;98042.41;4884928;29;20138;-38
2021/07/22 10:32:39;;;;;;;10.50;5.93;;;23.70;50.50;;;23.44;42.64;98030.44;4885102;29;20067;-38
2021/07/22 10:35:08;;;;;;;6.93;6.22;;;23.70;50.20;;;23.47;42.52;98038.16;4886179;29;20071;-38
2021/07/22 10:37:36;;;;;;;6.18;5.45;;;23.80;50.20;;;23.52;42.27;98035.56;4871916;29;20049;-38
2021/07/22 10:40:10;;;;;;;6.55;5.20;;;23.90;50.10;;;23.58;42.22;98029.19;4871810;29;20060;-38